Time;durP1;ratioP1;P1;durP2;ratioP2;P2;SDS_P1;SDS_P2;PMS_P1;PMS_P2;Temp;Humidity;BMP_temperature;BMP_pressure;BME280_temperature;BME280_humidity;BME280_pressure;Samples;Min_cycle;Max_cycle;Signal;HPM_P1;HPM_P2
2024/01/27 00:00:18;;;;;;;;;;;;;;;;;;5096179;27;20137;-85
2024/01/27 00:02:44;;;;;;;21.10;3.42;;;;;;;;;;5126265;27;20534;-87
2024/01/27 00:05:10;;;;;;;;;;;;;;;;;;5111949;27;20133;-86
2024/01/27 00:07:37;;;;;;;32.22;4.63;;;;;;;;;;5108024;27;19919;-86
2024/01/27 00:10:03;;;;;;;23.52;3.38;;;;;;;;;;5101975;27;20047;-86
2024/01/27 00:12:29;;;;;;;20.88;3.25;;;;;;;;;;5105165;27;20492;-86
2024/01/27 00:14:55;;;;;;;;;;;;;;;;;;5095657;27;20039;-86
2024/01/27 00:17:26;;;;;;;20.77;3.65;;;;;;;;;;5105453;27;20002;-85
2024/01/27 00:19:52;;;;;;;21.30;3.05;;;;;;;;;;5098530;27;20046;-86
2024/01/27 00:22:20;;;;;;;20.88;3.78;;;;;;;;;;5106737;27;20130;-86
2024/01/27 00:24:46;;;;;;;17.35;3.40;;;;;;;;;;5117850;27;20050;-85
2024/01/27 00:27:12;;;;;;;;;;;;;;;;;;5118443;27;20191;-87
2024/01/27 00:29:38;;;;;;;23.85;3.50;;;;;;;;;;5113820;27;19984;-85
2024/01/27 00:32:04;;;;;;;;;;;;;;;;;;5115957;27;20547;-86
2024/01/27 00:34:30;;;;;;;21.42;3.42;;;;;;;;;;5112436;27;19977;-86
2024/01/27 00:36:56;;;;;;;30.83;3.95;;;;;;;;;;5104834;27;20043;-86
2024/01/27 00:39:22;;;;;;;;;;;;;;;;;;5118924;27;20050;-85
2024/01/27 00:41:48;;;;;;;26.77;3.47;;;;;;;;;;5125589;27;19927;-86
2024/01/27 00:44:14;;;;;;;;;;;;;;;;;;5110904;27;20051;-87
2024/01/27 00:46:40;;;;;;;28.00;4.20;;;;;;;;;;5134216;27;20382;-86
2024/01/27 00:49:06;;;;;;;;;;;;;;;;;;5125270;27;20054;-86
2024/01/27 00:51:33;;;;;;;31.80;4.57;;;;;;;;;;5119252;27;19922;-86
2024/01/27 00:53:59;;;;;;;23.92;3.85;;;;;;;;;;5135696;27;20038;-86
2024/01/27 00:56:25;;;;;;;;;;;;;;;;;;5135767;27;20059;-84
2024/01/27 00:58:51;;;;;;;28.30;4.40;;;;;;;;;;5115200;27;19919;-85
2024/01/27 01:01:17;;;;;;;20.80;3.53;;;;;;;;;;5097924;27;20051;-86
2024/01/27 01:03:43;;;;;;;;;;;;;;;;;;5098303;27;20039;-86
2024/01/27 01:06:09;;;;;;;16.08;3.28;;;;;;;;;;5096305;27;20303;-86
2024/01/27 01:08:35;;;;;;;;;;;;;;;;;;5097918;27;20047;-86
2024/01/27 01:11:01;;;;;;;20.40;3.50;;;;;;;;;;5097954;27;19923;-86
2024/01/27 01:13:27;;;;;;;;;;;;;;;;;;5115544;27;20050;-85
2024/01/27 01:15:53;;;;;;;19.60;3.40;;;;;;;;;;5134865;27;19919;-85
2024/01/27 01:18:19;;;;;;;;;;;;;;;;;;5118727;27;20054;-85
2024/01/27 01:20:45;;;;;;;17.77;4.10;;;;;;;;;;5133398;27;19919;-86
2024/01/27 01:23:11;;;;;;;;;;;;;;;;;;5135646;27;20045;-86
2024/01/27 01:25:37;;;;;;;20.50;3.40;;;;;;;;;;5117105;27;20352;-86
2024/01/27 01:28:03;;;;;;;27.45;3.83;;;;;;;;;;5116746;28;20043;-85
2024/01/27 01:30:29;;;;;;;22.15;3.42;;;;;;;;;;5097442;28;20043;-85
2024/01/27 01:32:55;;;;;;;26.13;3.90;;;;;;;;;;5114328;27;20068;-86
2024/01/27 01:35:21;;;;;;;;;;;;;;;;;;5115255;27;20050;-85
2024/01/27 01:37:48;;;;;;;27.20;3.95;;;;;;;;;;5117340;27;20378;-86
2024/01/27 01:40:15;;;;;;;19.27;3.42;;;;;;;;;;5131137;28;20050;-85
2024/01/27 01:42:41;;;;;;;33.08;4.22;;;;;;;;;;5107565;28;20051;-86
2024/01/27 01:45:09;;;;;;;27.52;4.00;;;;;;;;;;5097036;28;20047;-86
2024/01/27 01:47:36;;;;;;;27.20;4.35;;;;;;;;;;5117551;27;20043;-86
2024/01/27 01:50:02;;;;;;;24.50;3.88;;;;;;;;;;5138186;27;20575;-86
2024/01/27 01:52:28;;;;;;;;;;;;;;;;;;5114168;27;20074;-84
2024/01/27 01:54:54;;;;;;;30.35;4.72;;;;;;;;;;5140739;27;20004;-86
2024/01/27 01:57:20;;;;;;;19.42;5.00;;;;;;;;;;5097804;27;20043;-86
2024/01/27 01:59:46;;;;;;;;;;;;;;;;;;5133277;27;20539;-86
2024/01/27 02:02:13;;;;;;;24.55;4.43;;;;;;;;;;5125901;27;20006;-86
2024/01/27 02:04:42;;;;;;;18.45;3.70;;;;;;;;;;5117265;27;20418;-86
2024/01/27 02:07:08;;;;;;;22.08;4.00;;;;;;;;;;5112984;27;20034;-85
2024/01/27 02:09:34;;;;;;;25.60;4.32;;;;;;;;;;5118202;27;20039;-84
2024/01/27 02:12:00;;;;;;;19.67;4.57;;;;;;;;;;5097845;27;20082;-85
2024/01/27 02:14:27;;;;;;;19.52;3.63;;;;;;;;;;5138676;27;20356;-86
2024/01/27 02:16:54;;;;;;;19.65;3.58;;;;;;;;;;5137339;27;20095;-85
2024/01/27 02:19:20;;;;;;;21.77;3.80;;;;;;;;;;5117587;27;20057;-86
2024/01/27 02:21:46;;;;;;;;;;;;;;;;;;5121217;27;20396;-86
2024/01/27 02:24:12;;;;;;;20.25;4.25;;;;;;;;;;5131295;27;20010;-86
2024/01/27 02:26:38;;;;;;;;;;;;;;;;;;5110854;27;20057;-85
2024/01/27 02:29:04;;;;;;;29.75;4.25;;;;;;;;;;5117747;27;19920;-86
2024/01/27 02:31:30;;;;;;;;;;;;;;;;;;5131092;27;20095;-85
2024/01/27 02:33:56;;;;;;;26.45;5.85;;;;;;;;;;5103693;27;19920;-85
2024/01/27 02:36:22;;;;;;;;;;;;;;;;;;5093080;27;20050;-85
2024/01/27 02:38:48;;;;;;;20.88;3.88;;;;;;;;;;5137598;27;19919;-86
2024/01/27 02:41:14;;;;;;;21.20;3.97;;;;;;;;;;5136347;27;20062;-86
2024/01/27 02:43:40;;;;;;;19.33;3.50;;;;;;;;;;5094554;27;20168;-85
2024/01/27 02:46:06;;;;;;;;;;;;;;;;;;5136891;27;20050;-86
2024/01/27 02:48:32;;;;;;;27.33;4.50;;;;;;;;;;5120697;27;19918;-86
2024/01/27 02:50:58;;;;;;;;;;;;;;;;;;5098833;27;20039;-85
2024/01/27 02:53:24;;;;;;;20.65;3.58;;;;;;;;;;5130408;27;19930;-85
2024/01/27 02:55:51;;;;;;;;;;;;;;;;;;5116910;27;20043;-86
2024/01/27 02:58:17;;;;;;;23.00;3.90;;;;;;;;;;5099744;27;20014;-85
2024/01/27 03:00:43;;;;;;;;;;;;;;;;;;5137113;27;20087;-85
2024/01/27 03:03:09;;;;;;;15.82;4.65;;;;;;;;;;5120636;27;19922;-86
2024/01/27 03:05:35;;;;;;;15.43;3.53;;;;;;;;;;5136023;27;20046;-85
2024/01/27 03:08:01;;;;;;;20.67;3.78;;;;;;;;;;5120458;27;20073;-85
2024/01/27 03:10:27;;;;;;;;;;;;;;;;;;5121221;27;20049;-86
2024/01/27 03:12:53;;;;;;;22.50;4.00;;;;;;;;;;5127183;27;19919;-86
2024/01/27 03:15:19;;;;;;;;;;;;;;;;;;5100107;27;20043;-85
2024/01/27 03:17:45;;;;;;;21.98;4.65;;;;;;;;;;5116590;27;19926;-85
2024/01/27 03:20:11;;;;;;;;;;;;;;;;;;5107636;27;20112;-85
2024/01/27 03:22:39;;;;;;;22.98;4.28;;;;;;;;;;5119611;27;19965;-85
2024/01/27 03:25:05;;;;;;;23.50;3.75;;;;;;;;;;5102857;27;20043;-85
2024/01/27 03:27:31;;;;;;;17.02;3.88;;;;;;;;;;5119808;27;20051;-86
2024/01/27 03:29:57;;;;;;;;;;;;;;;;;;5119940;27;20058;-86
2024/01/27 03:32:23;;;;;;;23.38;4.13;;;;;;;;;;5137185;27;19919;-86
2024/01/27 03:34:49;;;;;;;;;;;;;;;;;;5102142;27;20483;-85
2024/01/27 03:37:15;;;;;;;15.75;4.65;;;;;;;;;;5119553;27;19926;-86
2024/01/27 03:39:42;;;;;;;20.13;3.75;;;;;;;;;;5130826;27;20043;-86
2024/01/27 03:42:09;;;;;;;25.63;3.40;;;;;;;;;;5098666;27;20051;-86
2024/01/27 03:44:35;;;;;;;14.98;3.35;;;;;;;;;;5082933;27;20051;-86
2024/01/27 03:47:01;;;;;;;16.17;3.72;;;;;;;;;;5115134;27;20043;-85
2024/01/27 03:49:27;;;;;;;17.35;4.05;;;;;;;;;;5099225;27;20089;-85
2024/01/27 03:51:53;;;;;;;;;;;;;;;;;;5097792;27;20500;-85
2024/01/27 03:54:19;;;;;;;17.38;3.60;;;;;;;;;;5116374;27;19980;-85
2024/01/27 03:56:45;;;;;;;;;;;;;;;;;;5099797;27;20518;-85
2024/01/27 03:59:11;;;;;;;16.30;3.17;;;;;;;;;;5112708;27;19923;-86
2024/01/27 04:01:37;;;;;;;24.75;4.03;;;;;;;;;;5117815;27;20050;-86
2024/01/27 04:04:03;;;;;;;;;;;;;;;;;;5136752;27;20078;-86
2024/01/27 04:06:29;;;;;;;16.10;3.03;;;;;;;;;;5117854;27;19973;-85
2024/01/27 04:08:55;;;;;;;;;;;;;;;;;;5102585;27;20448;-84
2024/01/27 04:11:22;;;;;;;21.08;3.65;;;;;;;;;;5135948;27;19919;-86
2024/01/27 04:13:49;;;;;;;19.60;3.22;;;;;;;;;;5106828;27;20090;-85
2024/01/27 04:16:15;;;;;;;21.33;3.63;;;;;;;;;;5098299;27;20070;-86
2024/01/27 04:18:42;;;;;;;16.58;3.95;;;;;;;;;;5115840;27;20039;-85
2024/01/27 04:21:09;;;;;;;24.35;4.18;;;;;;;;;;5098546;27;20133;-86
2024/01/27 04:23:35;;;;;;;21.65;4.25;;;;;;;;;;5130180;27;20507;-85
2024/01/27 04:26:02;;;;;;;;;;;;;;;;;;5135679;27;20181;-86
2024/01/27 04:28:30;;;;;;;25.25;4.05;;;;;;;;;;5118953;27;19919;-85
2024/01/27 04:30:56;;;;;;;16.67;3.97;;;;;;;;;;5101466;27;20046;-85
2024/01/27 04:33:22;;;;;;;;;;;;;;;;;;5116022;27;20130;-86
2024/01/27 04:35:48;;;;;;;25.23;3.30;;;;;;;;;;5114033;27;20284;-85
2024/01/27 04:38:14;;;;;;;;;;;;;;;;;;5081509;27;20139;-85
2024/01/27 04:40:40;;;;;;;18.42;3.88;;;;;;;;;;5098377;27;19919;-85
2024/01/27 04:43:06;;;;;;;;;;;;;;;;;;5117077;27;20484;-85
2024/01/27 04:45:32;;;;;;;22.52;4.38;;;;;;;;;;5097857;27;19919;-85
2024/01/27 04:48:00;;;;;;;17.80;3.42;;;;;;;;;;5131552;27;20069;-85
2024/01/27 04:50:26;;;;;;;17.65;3.63;;;;;;;;;;5134327;27;20050;-85
2024/01/27 04:52:52;;;;;;;;;;;;;;;;;;5102282;27;20400;-85
2024/01/27 04:55:18;;;;;;;23.05;4.75;;;;;;;;;;5118107;27;19926;-86
2024/01/27 04:57:44;;;;;;;;;;;;;;;;;;5125114;27;20407;-85
2024/01/27 05:00:12;;;;;;;22.15;4.28;;;;;;;;;;5114323;27;20010;-85
2024/01/27 05:02:39;;;;;;;21.98;3.63;;;;;;;;;;5114922;27;20054;-86
2024/01/27 05:05:05;;;;;;;18.25;3.85;;;;;;;;;;5116098;27;20054;-85
2024/01/27 05:07:31;;;;;;;;;;;;;;;;;;5106405;27;20516;-86
2024/01/27 05:09:57;;;;;;;20.65;3.78;;;;;;;;;;5119967;27;19926;-85
2024/01/27 05:12:23;;;;;;;19.20;3.78;;;;;;;;;;5097867;27;20112;-85
2024/01/27 05:14:49;;;;;;;16.20;3.65;;;;;;;;;;5096098;27;20090;-85
2024/01/27 05:17:15;;;;;;;25.67;4.32;;;;;;;;;;5114476;28;20051;-85
2024/01/27 05:19:41;;;;;;;14.75;3.45;;;;;;;;;;5111175;27;20046;-85
2024/01/27 05:22:07;;;;;;;25.77;4.00;;;;;;;;;;5123324;27;20065;-86
2024/01/27 05:24:33;;;;;;;;;;;;;;;;;;5114171;28;20548;-86
2024/01/27 05:26:59;;;;;;;25.48;3.92;;;;;;;;;;5096874;28;19919;-85
2024/01/27 05:29:25;;;;;;;;;;;;;;;;;;5116367;28;20047;-86
2024/01/27 05:31:51;;;;;;;22.65;3.58;;;;;;;;;;5114397;28;20382;-86
2024/01/27 05:34:17;;;;;;;;;;;;;;;;;;5097648;28;20043;-85
2024/01/27 05:36:43;;;;;;;16.98;3.65;;;;;;;;;;5096156;28;20015;-86
2024/01/27 05:39:09;;;;;;;;;;;;;;;;;;5097418;28;20514;-85
2024/01/27 05:41:35;;;;;;;20.67;4.05;;;;;;;;;;5115926;27;19920;-86
2024/01/27 05:44:01;;;;;;;;;;;;;;;;;;5112614;28;20441;-85
2024/01/27 05:46:27;;;;;;;21.60;4.25;;;;;;;;;;5113435;28;19919;-86
2024/01/27 05:48:54;;;;;;;;;;;;;;;;;;5098211;28;20130;-86
2024/01/27 05:51:23;;;;;;;21.08;4.43;;;;;;;;;;5104928;27;19919;-85
2024/01/27 05:53:49;;;;;;;16.40;3.72;;;;;;;;;;5112122;28;20035;-86
2024/01/27 05:56:18;;;;;;;22.67;4.57;;;;;;;;;;5106087;28;20094;-85
2024/01/27 05:58:44;;;;;;;33.40;5.35;;;;;;;;;;5117225;27;20049;-86
2024/01/27 06:01:10;;;;;;;;;;;;;;;;;;5117330;27;20039;-85
2024/01/27 06:03:36;;;;;;;23.52;4.53;;;;;;;;;;5117851;27;19967;-85
2024/01/27 06:06:02;;;;;;;;;;;;;;;;;;5113300;28;20126;-85
2024/01/27 06:08:28;;;;;;;16.65;4.78;;;;;;;;;;5097056;28;19958;-86
2024/01/27 06:10:54;;;;;;;;;;;;;;;;;;5097857;28;20696;-85
2024/01/27 06:13:20;;;;;;;25.13;5.45;;;;;;;;;;5096891;28;19924;-85
2024/01/27 06:15:46;;;;;;;17.58;4.45;;;;;;;;;;5096715;28;20135;-85
2024/01/27 06:18:12;;;;;;;;;;;;;;;;;;5097378;28;20108;-85
2024/01/27 06:20:40;;;;;;;18.33;5.32;;;;;;;;;;5113665;28;19985;-84
2024/01/27 06:23:06;;;;;;;28.80;6.57;;;;;;;;;;5114376;28;20500;-86
2024/01/27 06:25:32;;;;;;;;;;;;;;;;;;5096936;28;20039;-86
2024/01/27 06:27:58;;;;;;;25.52;5.53;;;;;;;;;;5097436;28;19920;-86
2024/01/27 06:30:24;;;;;;;;;;;;;;;;;;5096743;28;20213;-86
2024/01/27 06:32:50;;;;;;;23.10;6.15;;;;;;;;;;5131609;27;19989;-86
2024/01/27 06:35:17;;;;;;;;;;;;;;;;;;5099619;27;20044;-86
2024/01/27 06:37:43;;;;;;;27.30;5.70;;;;;;;;;;5134348;27;19926;-86
2024/01/27 06:40:09;;;;;;;;;;;;;;;;;;5118205;27;20046;-86
2024/01/27 06:42:35;;;;;;;28.40;6.75;;;;;;;;;;5100437;27;19927;-85
2024/01/27 06:45:01;;;;;;;;;;;;;;;;;;5117949;27;20043;-85
2024/01/27 06:47:27;;;;;;;20.15;6.30;;;;;;;;;;5110116;27;19919;-85
2024/01/27 06:49:53;;;;;;;30.25;6.72;;;;;;;;;;5116745;27;20473;-85
2024/01/27 06:52:19;;;;;;;;;;;;;;;;;;5118557;27;20043;-85
2024/01/27 06:54:46;;;;;;;25.15;6.53;;;;;;;;;;5120961;27;19926;-85
2024/01/27 06:57:19;;;;;;;28.35;7.20;;;;;;;;;;5136070;27;20115;-86
2024/01/27 06:59:45;;;;;;;32.08;8.60;;;;;;;;;;5100425;27;20051;-86
2024/01/27 07:02:13;;;;;;;;;;;;;;;;;;5128489;27;20106;-86
2024/01/27 07:04:40;;;;;;;30.90;7.28;;;;;;;;;;5137409;27;19926;-86
2024/01/27 07:07:06;;;;;;;;;;;;;;;;;;5136475;27;20122;-86
2024/01/27 07:09:32;;;;;;;23.70;7.68;;;;;;;;;;5137412;27;19964;-86
2024/01/27 07:11:58;;;;;;;;;;;;;;;;;;5138269;27;20039;-86
2024/01/27 07:14:24;;;;;;;27.92;8.30;;;;;;;;;;5134846;27;19967;-86
2024/01/27 07:16:50;;;;;;;31.88;8.95;;;;;;;;;;5130544;27;20078;-85
2024/01/27 07:19:16;;;;;;;;;;;;;;;;;;5100736;27;20050;-85
2024/01/27 07:21:42;;;;;;;24.33;8.40;;;;;;;;;;5115376;27;19972;-85
2024/01/27 07:24:09;;;;;;;;;;;;;;;;;;5102781;27;20483;-86
2024/01/27 07:26:35;;;;;;;30.73;8.80;;;;;;;;;;5115459;27;19927;-85
2024/01/27 07:29:01;;;;;;;;;;;;;;;;;;5114983;27;20600;-85
2024/01/27 07:31:27;;;;;;;30.52;9.27;;;;;;;;;;5129292;27;19950;-87
2024/01/27 07:33:53;;;;;;;31.45;9.65;;;;;;;;;;5117418;27;20055;-87
2024/01/27 07:36:19;;;;;;;34.60;9.77;;;;;;;;;;5115491;27;20054;-85
2024/01/27 07:38:45;;;;;;;35.55;10.30;;;;;;;;;;5133927;27;20125;-89
2024/01/27 07:41:11;;;;;;;29.13;9.88;;;;;;;;;;5111015;28;20043;-85
2024/01/27 07:43:37;;;;;;;33.17;10.60;;;;;;;;;;5095382;28;20477;-86
2024/01/27 07:46:03;;;;;;;;;;;;;;;;;;5115651;27;20050;-85
2024/01/27 07:48:29;;;;;;;29.83;9.60;;;;;;;;;;5114726;27;20303;-86
2024/01/27 07:50:56;;;;;;;34.42;10.20;;;;;;;;;;5105946;27;20054;-86
2024/01/27 07:53:22;;;;;;;35.30;10.60;;;;;;;;;;5099546;27;20046;-85
2024/01/27 07:55:50;;;;;;;33.22;11.05;;;;;;;;;;5133348;27;20057;-86
2024/01/27 07:58:16;;;;;;;35.45;11.32;;;;;;;;;;5111795;27;20087;-86
2024/01/27 08:00:42;;;;;;;;;;;;;;;;;;5112288;27;20685;-86
2024/01/27 08:03:08;;;;;;;32.40;10.68;;;;;;;;;;5116471;27;19919;-86
2024/01/27 08:05:34;;;;;;;;;;;;;;;;;;5115004;27;20043;-86
2024/01/27 08:08:00;;;;;;;27.75;10.07;;;;;;;;;;5133014;27;20459;-86
2024/01/27 08:10:26;;;;;;;;;;;;;;;;;;5133293;27;20043;-86
2024/01/27 08:12:52;;;;;;;35.80;11.15;;;;;;;;;;5116214;27;19989;-86
2024/01/27 08:15:18;;;;;;;;;;;;;;;;;;5115736;27;20062;-86
2024/01/27 08:17:44;;;;;;;31.67;9.48;;;;;;;;;;5132330;27;19923;-86
2024/01/27 08:20:10;;;;;;;;;;;;;;;;;;5110466;27;20055;-86
2024/01/27 08:22:36;;;;;;;31.20;10.38;;;;;;;;;;5120092;27;19926;-86
2024/01/27 08:25:03;;;;;;;32.72;11.60;;;;;;;;;;5096627;28;20071;-86
2024/01/27 08:27:29;;;;;;;29.63;10.75;;;;;;;;;;5092228;28;20056;-86
2024/01/27 08:29:55;;;;;;;;;;;;;;;;;;5127910;27;20051;-86
2024/01/27 08:32:21;;;;;;;29.85;10.25;;;;;;;;;;5111792;27;19953;-83
2024/01/27 08:34:47;;;;;;;;;;;;;;;;;;5111368;28;20047;-85
2024/01/27 08:37:18;;;;;;;28.50;10.05;;;;;;;;;;5126901;27;19919;-81
2024/01/27 08:39:44;;;;;;;31.23;10.55;;;;;;;;;;5111733;28;20044;-86
2024/01/27 08:42:10;;;;;;;;;;;;;;;;;;5110789;27;20051;-86
2024/01/27 08:44:36;;;;;;;31.17;11.82;;;;;;;;;;5118365;27;19988;-83
2024/01/27 08:47:02;;;;;;;29.38;11.35;;;;;;;;;;5094893;28;20040;-86
2024/01/27 08:49:28;;;;;;;;;;;;;;;;;;5098636;28;20040;-84
2024/01/27 08:51:55;;;;;;;32.08;11.10;;;;;;;;;;5125603;27;19980;-85
2024/01/27 08:54:21;;;;;;;35.33;11.40;;;;;;;;;;5110404;27;20043;-85
2024/01/27 08:56:47;;;;;;;;;;;;;;;;;;5113436;27;20559;-84
2024/01/27 08:59:13;;;;;;;34.53;11.20;;;;;;;;;;5130819;27;19919;-84
2024/01/27 09:01:39;;;;;;;37.22;11.10;;;;;;;;;;5109681;27;20475;-84
2024/01/27 09:04:05;;;;;;;29.55;11.05;;;;;;;;;;5098332;27;20146;-84
2024/01/27 09:06:31;;;;;;;;;;;;;;;;;;5113544;27;20495;-86
2024/01/27 09:08:57;;;;;;;26.38;11.13;;;;;;;;;;5131589;27;20082;-85
2024/01/27 09:11:23;;;;;;;;;;;;;;;;;;5109924;27;20051;-85
2024/01/27 09:13:51;;;;;;;35.90;12.33;;;;;;;;;;5114259;27;19972;-85
2024/01/27 09:16:18;;;;;;;33.00;11.60;;;;;;;;;;5110423;28;20055;-85
2024/01/27 09:18:44;;;;;;;30.83;11.35;;;;;;;;;;5077049;28;20047;-85
2024/01/27 09:21:10;;;;;;;;;;;;;;;;;;5117433;27;20048;-85
2024/01/27 09:23:36;;;;;;;32.28;12.27;;;;;;;;;;5120203;27;19920;-87
2024/01/27 09:26:03;;;;;;;32.17;11.27;;;;;;;;;;5125836;27;20043;-87
2024/01/27 09:28:29;;;;;;;33.17;11.02;;;;;;;;;;5122747;27;20047;-88
2024/01/27 09:30:55;;;;;;;29.27;11.27;;;;;;;;;;5117906;27;20047;-88
2024/01/27 09:33:22;;;;;;;38.80;11.85;;;;;;;;;;5136069;27;20559;-87
2024/01/27 09:35:49;;;;;;;27.98;12.07;;;;;;;;;;5116970;27;20046;-88
2024/01/27 09:38:15;;;;;;;33.03;11.43;;;;;;;;;;5135809;27;20043;-87
2024/01/27 09:40:42;;;;;;;26.27;9.93;;;;;;;;;;5134482;27;20086;-87
2024/01/27 09:43:10;;;;;;;28.05;11.45;;;;;;;;;;5135853;27;20394;-87
2024/01/27 09:45:36;;;;;;;27.90;11.73;;;;;;;;;;5131912;27;20121;-85
2024/01/27 09:48:03;;;;;;;29.73;11.32;;;;;;;;;;5111020;28;20154;-87
2024/01/27 09:50:30;;;;;;;31.05;11.57;;;;;;;;;;5099446;27;20139;-88
2024/01/27 09:52:56;;;;;;;;;;;;;;;;;;5115535;27;20050;-88
2024/01/27 09:55:22;;;;;;;31.05;11.52;;;;;;;;;;5135722;27;19926;-85
2024/01/27 09:57:48;;;;;;;29.20;10.95;;;;;;;;;;5117765;27;20053;-84
2024/01/27 10:00:16;;;;;;;33.00;11.40;;;;;;;;;;5134787;27;20129;-85
2024/01/27 10:02:43;;;;;;;23.60;10.02;;;;;;;;;;5116986;27;20500;-85
2024/01/27 10:05:09;;;;;;;35.75;10.93;;;;;;;;;;5110550;28;20123;-88
2024/01/27 10:07:35;;;;;;;28.63;10.20;;;;;;;;;;5097438;28;20498;-85
2024/01/27 10:10:01;;;;;;;32.47;10.45;;;;;;;;;;5121618;27;20893;-86
2024/01/27 10:12:27;;;;;;;;;;;;;;;;;;5123635;27;20411;-89
2024/01/27 10:14:53;;;;;;;25.55;9.55;;;;;;;;;;5117852;27;19919;-88
2024/01/27 10:17:25;;;;;;;30.55;9.63;;;;;;;;;;5086102;27;20039;-88
2024/01/27 10:20:01;;;;;;;23.80;9.23;;;;;;;;;;5118573;27;20472;-89
2024/01/27 10:22:27;;;;;;;24.35;9.50;;;;;;;;;;5119292;27;20039;-89
2024/01/27 10:24:56;;;;;;;30.80;10.70;;;;;;;;;;5119053;27;20042;-90
2024/01/27 10:27:22;;;;;;;22.55;9.52;;;;;;;;;;5093717;27;20059;-86
2024/01/27 10:29:48;;;;;;;;;;;;;;;;;;5120638;27;20062;-88
2024/01/27 10:32:14;;;;;;;24.00;8.80;;;;;;;;;;5123473;27;20272;-89
2024/01/27 10:34:40;;;;;;;;;;;;;;;;;;5106302;27;20047;-89
2024/01/27 10:37:06;;;;;;;21.67;8.70;;;;;;;;;;5136746;27;20271;-86
2024/01/27 10:39:32;;;;;;;;;;;;;;;;;;5122372;27;20043;-88
2024/01/27 10:42:00;;;;;;;24.27;8.30;;;;;;;;;;5138646;27;20253;-87
2024/01/27 10:44:29;;;;;;;28.25;8.98;;;;;;;;;;5120327;27;20046;-87
2024/01/27 10:46:56;;;;;;;28.30;8.75;;;;;;;;;;5120016;27;20476;-87
2024/01/27 10:49:22;;;;;;;28.30;8.25;;;;;;;;;;5138324;27;20051;-87
2024/01/27 10:51:48;;;;;;;;;;;;;;;;;;5126417;27;20395;-90
2024/01/27 10:54:18;;;;;;;20.75;7.40;;;;;;;;;;5119669;27;19919;-92
2024/01/27 10:56:45;;;;;;;23.30;8.10;;;;;;;;;;5115017;27;20043;-86
2024/01/27 10:59:12;;;;;;;21.75;7.60;;;;;;;;;;5137558;27;20069;-87
2024/01/27 11:01:38;;;;;;;20.45;8.05;;;;;;;;;;5119359;27;20115;-85
2024/01/27 11:04:06;;;;;;;23.58;7.53;;;;;;;;;;5120013;27;20043;-86
2024/01/27 11:06:32;;;;;;;22.42;6.93;;;;;;;;;;5096101;27;20157;-87
2024/01/27 11:09:00;;;;;;;25.08;6.68;;;;;;;;;;5127673;27;20463;-87
2024/01/27 11:11:26;;;;;;;22.95;7.05;;;;;;;;;;5137687;27;20118;-87
2024/01/27 11:13:52;;;;;;;22.15;7.00;;;;;;;;;;5136625;27;20112;-87
2024/01/27 11:16:18;;;;;;;;;;;;;;;;;;5137850;27;20050;-87
2024/01/27 11:18:45;;;;;;;24.33;5.90;;;;;;;;;;5115477;27;19919;-86
2024/01/27 11:21:18;;;;;;;19.70;5.82;;;;;;;;;;5132761;27;20043;-85
2024/01/27 11:23:47;;;;;;;22.45;5.70;;;;;;;;;;5133913;27;20161;-86
2024/01/27 11:26:17;;;;;;;17.30;5.78;;;;;;;;;;5136975;27;20047;-86
2024/01/27 11:28:43;;;;;;;19.98;5.95;;;;;;;;;;5119372;27;20575;-82
2024/01/27 11:31:10;;;;;;;18.98;5.45;;;;;;;;;;5136519;27;20194;-86
2024/01/27 11:33:43;;;;;;;21.52;6.22;;;;;;;;;;5136719;27;20047;-86
2024/01/27 11:36:18;;;;;;;21.45;6.10;;;;;;;;;;5131995;27;20042;-85
2024/01/27 11:38:44;;;;;;;18.80;5.78;;;;;;;;;;5116436;27;20054;-86
2024/01/27 11:41:10;;;;;;;;;;;;;;;;;;5118611;27;20265;-86
2024/01/27 11:43:36;;;;;;;16.30;5.10;;;;;;;;;;5132835;27;20405;-85
2024/01/27 11:46:02;;;;;;;;;;;;;;;;;;5097980;27;20039;-86
2024/01/27 11:48:31;;;;;;;16.23;5.15;;;;;;;;;;5135699;27;19960;-85
2024/01/27 11:51:07;;;;;;;16.42;4.93;;;;;;;;;;5133897;27;20078;-86
2024/01/27 11:53:34;;;;;;;20.20;5.32;;;;;;;;;;5120147;27;20043;-87
2024/01/27 11:56:01;;;;;;;19.52;5.60;;;;;;;;;;5117150;27;20071;-86
2024/01/27 11:58:27;;;;;;;20.40;4.82;;;;;;;;;;5136632;27;20045;-86
2024/01/27 12:00:53;;;;;;;;;;;;;;;;;;5135360;27;20038;-85
2024/01/27 12:03:20;;;;;;;17.92;5.00;;;;;;;;;;5135922;27;19919;-86
2024/01/27 12:05:46;;;;;;;15.40;5.10;;;;;;;;;;5129640;27;20483;-85
2024/01/27 12:08:12;;;;;;;13.98;4.50;;;;;;;;;;5118784;27;20110;-88
2024/01/27 12:10:38;;;;;;;18.17;4.60;;;;;;;;;;5103432;27;20050;-83
2024/01/27 12:13:04;;;;;;;;;;;;;;;;;;5133079;27;20248;-87
2024/01/27 12:15:30;;;;;;;16.17;4.32;;;;;;;;;;5098203;27;19926;-87
2024/01/27 12:17:56;;;;;;;;;;;;;;;;;;5116414;27;20057;-87
2024/01/27 12:20:23;;;;;;;20.60;4.75;;;;;;;;;;5097576;27;20002;-87
2024/01/27 12:22:52;;;;;;;20.10;4.80;;;;;;;;;;5099037;27;20046;-88
2024/01/27 12:25:18;;;;;;;16.00;4.60;;;;;;;;;;5098728;27;20078;-84
2024/01/27 12:27:44;;;;;;;20.88;4.68;;;;;;;;;;5119555;27;20059;-84
2024/01/27 12:30:11;;;;;;;16.17;4.95;;;;;;;;;;5125843;27;20057;-85
2024/01/27 12:32:37;;;;;;;15.40;4.88;;;;;;;;;;5098549;27;20085;-84
2024/01/27 12:35:03;;;;;;;;;;;;;;;;;;5115095;27;20039;-85
2024/01/27 12:37:29;;;;;;;17.95;4.82;;;;;;;;;;5098219;27;20360;-85
2024/01/27 12:39:55;;;;;;;;;;;;;;;;;;5099485;27;20137;-85
2024/01/27 12:42:21;;;;;;;20.33;4.53;;;;;;;;;;5115426;27;19966;-85
2024/01/27 12:44:47;;;;;;;;;;;;;;;;;;5119306;27;20130;-84
2024/01/27 12:47:13;;;;;;;18.20;4.57;;;;;;;;;;5135699;27;19969;-85
2024/01/27 12:49:43;;;;;;;14.25;4.22;;;;;;;;;;5119210;27;20524;-85
2024/01/27 12:52:09;;;;;;;15.27;4.70;;;;;;;;;;5126486;27;20047;-85
2024/01/27 12:54:35;;;;;;;;;;;;;;;;;;5115884;27;20050;-85
2024/01/27 12:57:02;;;;;;;14.35;4.32;;;;;;;;;;5113949;27;19923;-83
2024/01/27 12:59:28;;;;;;;17.90;4.50;;;;;;;;;;5109932;27;20046;-89
2024/01/27 13:01:54;;;;;;;23.35;5.07;;;;;;;;;;5139185;27;20077;-91
2024/01/27 13:04:21;;;;;;;17.45;4.55;;;;;;;;;;5120383;27;20116;-89
2024/01/27 13:06:47;;;;;;;12.88;4.18;;;;;;;;;;5135356;27;20054;-90
2024/01/27 13:09:13;;;;;;;18.70;4.38;;;;;;;;;;5118204;27;20157;-91
2024/01/27 13:11:39;;;;;;;15.85;4.43;;;;;;;;;;5118747;27;20494;-90
2024/01/27 13:14:06;;;;;;;15.63;4.32;;;;;;;;;;5115966;27;20054;-90
2024/01/27 13:16:33;;;;;;;12.15;4.20;;;;;;;;;;5118048;27;20088;-92
2024/01/27 13:18:59;;;;;;;18.08;4.18;;;;;;;;;;5136357;27;20145;-91
2024/01/27 13:21:24;;;;;;;;;;;;;;;;;;5131972;27;20047;-91
2024/01/27 13:23:52;;;;;;;16.88;4.07;;;;;;;;;;5136046;27;20424;-91
2024/01/27 13:26:19;;;;;;;14.75;3.83;;;;;;;;;;5117630;27;20096;-90
2024/01/27 13:28:45;;;;;;;18.13;4.47;;;;;;;;;;5131327;27;20089;-90
2024/01/27 13:31:11;;;;;;;14.68;4.10;;;;;;;;;;5132650;27;20088;-88
2024/01/27 13:33:38;;;;;;;;;;;;;;;;;;5107359;27;20181;-92
2024/01/27 13:36:04;;;;;;;14.50;3.78;;;;;;;;;;5112784;27;19951;-88
2024/01/27 13:38:30;;;;;;;14.93;3.95;;;;;;;;;;5135370;27;20051;-93
2024/01/27 13:40:56;;;;;;;;;;;;;;;;;;5118720;27;20488;-91
2024/01/27 13:43:22;;;;;;;12.52;3.63;;;;;;;;;;5120536;27;19926;-83
2024/01/27 13:45:49;;;;;;;15.30;2.90;;;;;;;;;;5121274;27;20538;-82
2024/01/27 13:48:15;;;;;;;15.85;3.35;;;;;;;;;;5096191;27;20111;-83
2024/01/27 13:50:41;;;;;;;15.88;3.40;;;;;;;;;;5119987;27;20065;-83
2024/01/27 13:53:07;;;;;;;;;;;;;;;;;;5121772;27;20054;-84
2024/01/27 13:55:33;;;;;;;16.25;3.30;;;;;;;;;;5119959;27;19919;-83
2024/01/27 13:57:59;;;;;;;16.60;3.40;;;;;;;;;;5138937;27;20042;-83
2024/01/27 14:00:25;;;;;;;;;;;;;;;;;;5132467;27;20043;-83
2024/01/27 14:02:51;;;;;;;13.00;3.17;;;;;;;;;;5136587;27;19925;-83
2024/01/27 14:05:17;;;;;;;;;;;;;;;;;;5090166;27;20381;-83
2024/01/27 14:07:43;;;;;;;11.00;2.80;;;;;;;;;;5101156;27;19945;-83
2024/01/27 14:10:09;;;;;;;;;;;;;;;;;;5101930;27;20051;-84
2024/01/27 14:12:35;;;;;;;14.57;3.17;;;;;;;;;;5118349;27;19995;-83
2024/01/27 14:15:01;;;;;;;;;;;;;;;;;;5110645;27;20046;-83
2024/01/27 14:17:27;;;;;;;13.10;3.75;;;;;;;;;;5119158;27;19919;-83
2024/01/27 14:19:53;;;;;;;;;;;;;;;;;;5095610;27;20133;-83
2024/01/27 14:22:19;;;;;;;10.55;2.78;;;;;;;;;;5119434;27;20022;-83
2024/01/27 14:24:45;;;;;;;;;;;;;;;;;;5118293;27;20480;-82
2024/01/27 14:27:13;;;;;;;16.08;3.20;;;;;;;;;;5121286;27;19926;-72
2024/01/27 14:29:39;;;;;;;14.82;3.60;;;;;;;;;;5154558;27;20051;-74
2024/01/27 14:32:06;;;;;;;13.70;3.08;;;;;;;;;;5155801;27;20555;-74
2024/01/27 14:34:33;;;;;;;14.15;3.40;;;;;;;;;;5136859;27;20695;-83
2024/01/27 14:37:01;;;;;;;13.73;3.17;;;;;;;;;;5133911;27;20035;-82
2024/01/27 14:39:27;;;;;;;16.20;3.50;;;;;;;;;;5120713;27;20046;-83
2024/01/27 14:41:54;;;;;;;;;;;;;;;;;;5121083;27;20043;-83
2024/01/27 14:44:21;;;;;;;15.13;3.80;;;;;;;;;;5117493;27;19926;-83
2024/01/27 14:46:47;;;;;;;15.85;4.05;;;;;;;;;;5101197;27;20035;-83
2024/01/27 14:49:13;;;;;;;;;;;;;;;;;;5096118;27;21072;-83
2024/01/27 14:51:39;;;;;;;11.93;3.40;;;;;;;;;;5116480;27;19918;-83
2024/01/27 14:54:06;;;;;;;;;;;;;;;;;;5098131;27;20079;-83
2024/01/27 14:56:32;;;;;;;15.40;3.85;;;;;;;;;;5137222;27;20288;-82